Details From UUDD - Moscou Domodedovo
To RPVP - Puerto Princesa
Flight Number -
Tags Generated
Created
Modified
Stats Distance 4,614 nm / 8,545 km
Max Altitude 0 ft / 0 m
Waypoints 6
Social Downloads 1
Likes 0
Share VATSIM

Download

Looking for another format? Having issues loading an existing format? Contact us
Advertisement - Login to hide

Notes

Generated

Route

UUDD TOLMA DOGUR ARPAL PR RPVP

ID Type Via Altitude Latitude Longitude Leg Dist Tot Dist Heading (true) Name
O UUDD APT - 0 ft / 0 m 55.42000˚ 37.88000˚ - 0 nm - -
TOLMA FIX - 0 ft / 0 m 54.94667˚ 44.65833˚ 234 nm 234 nm 94° / 100° -
DOGUR FIX - 0 ft / 0 m 54.40000˚ 50.31667˚ 199 nm 433 nm 97° / 102° -
ARPAL FIX - 0 ft / 0 m 50.80222˚ 67.35472˚ 656 nm 1089 nm 102° / 116° -
PR VOR - 0 ft / 0 m 9.74133˚ 118.75294˚ 3524 nm 4613 nm 116° / 145° PUERTO PRINCESA VOR-DME
O RPVP APT - 0 ft / 0 m 9.74263˚ 118.74689˚ 0 nm 4614 nm 282° / 282° -

Altitude Profile

Advertisement - Login to hide

Weather


0- 5 10 15 20 25 30 35+ Temperature / ° C

Clouds and Precipitation
Forecast for 2018-05-25 12:00 UTC. Updated 4 hours ago

Ground ~20,000 ft ~40,000 ft Winds

UUDD

Details ICAO UUDD (DME)
Name Moscou Domodedovo
Region Russia
Timezone Europe/Moscow (UTC+3.0)
Stats Elevation 588 ft / 179 m (AMSL)
Location 55.409191° 37.901432°
Runways 3
Magnetic Variation 11.080° E

METAR

UUDD 251500Z 04007MPS CAVOK 18/02 Q1026 WS R32L R88/010095 NOSIG

Decode

TAF

TAF UUDD 251354Z 2515/2621 03005MPS 9999 SCT040 TX19/2612Z TN05/2601Z TEMPO 2515/2518 03010MPS BECMG 2600/2602 09003MPS

Decode

Departure Runways

ID Width Length Bearing (true) Bearing (mag) Surface Threshold Offset Overrun Length
14C 148 ft / 45 m 8,754 ft / 2,668 m 146.47° 135.39° Concrete 0 ft / 0 m 0 ft / 0 m
14L 174 ft / 53 m 12,382 ft / 3,774 m 145.59° 134.51° Concrete 0 ft / 0 m 0 ft / 0 m
14R 230 ft / 70 m 11,395 ft / 3,473 m 145.45° 134.37° Concrete 0 ft / 0 m 0 ft / 0 m
32C 148 ft / 45 m 8,754 ft / 2,668 m 326.49° 315.41° Concrete 0 ft / 0 m 0 ft / 0 m
32L 230 ft / 70 m 11,395 ft / 3,473 m 325.48° 314.40° Concrete 0 ft / 0 m 0 ft / 0 m
32R 174 ft / 53 m 12,382 ft / 3,774 m 325.61° 314.53° Concrete 0 ft / 0 m 0 ft / 0 m

RPVP

Details ICAO RPVP (PPS)
Name PUERTO PRINCESA
Region Philippines
Timezone Asia/Manila (UTC+8.0)
Stats Elevation 71 ft / 22 m (AMSL)
Location 9.742119° 118.758730°
Runways 1
Magnetic Variation 1.197° W

METAR

RPVP 251500Z 27004KT 9999 FEW019 SCT250 27/25 Q1010 RMK A2983

Decode

TAF

Not found

Destination Runways

ID Width Length Bearing (true) Bearing (mag) Surface Threshold Offset Overrun Length
09 148 ft / 45 m 8,526 ft / 2,599 m 92.52° 93.72° Concrete 0 ft / 0 m 560 ft / 171 m
27 148 ft / 45 m 8,526 ft / 2,599 m 272.52° 273.72° Concrete 0 ft / 0 m 574 ft / 175 m